Time,TemperatureF,DewpointF,PressureIn,WindDirection,WindDirectionDegrees,WindSpeedMPH,WindSpeedGustMPH,Humidity,HourlyPrecipIn,Conditions,Clouds,dailyrainin,SoftwareType,DateUTC
2013-02-02 00:17:00,41.1,39.0,30.15,WNW,293,0.0,0.0,92,0.00,CLR,,0.00,WeatherDisplay:10.37,2013-02-02 08:17:00,
2013-02-02 00:32:00,41.1,39.0,30.15,WNW,293,0.0,0.0,92,0.00,CLR,,0.00,WeatherDisplay:10.37,2013-02-02 08:32:00,
2013-02-02 00:47:00,40.9,38.8,30.15,WNW,293,0.0,0.0,92,0.00,CLR,,0.00,WeatherDisplay:10.37,2013-02-02 08:47:00,
2013-02-02 01:02:00,40.8,38.7,30.15,WNW,293,0.0,0.0,92,0.00,CLR,,0.00,WeatherDisplay:10.37,2013-02-02 09:02:00,
2013-02-02 01:17:00,40.6,38.5,30.15,WNW,293,0.0,0.0,92,0.00,CLR,,0.00,WeatherDisplay:10.37,2013-02-02 09:17:00,
2013-02-02 01:32:00,40.5,38.4,30.16,WNW,293,0.0,0.0,92,0.00,CLR,,0.00,WeatherDisplay:10.37,2013-02-02 09:32:00,
2013-02-02 01:47:00,40.3,38.2,30.16,WNW,293,0.0,0.0,92,0.00,CLR,,0.00,WeatherDisplay:10.37,2013-02-02 09:47:00,
2013-02-02 02:02:00,40.2,38.1,30.16,WNW,293,0.0,0.0,92,0.00,CLR,,0.00,WeatherDisplay:10.37,2013-02-02 10:02:00,
2013-02-02 02:17:00,40.1,38.0,30.17,WNW,293,0.0,0.0,92,0.00,CLR,,0.00,WeatherDisplay:10.37,2013-02-02 10:17:00,
2013-02-02 02:32:00,39.9,37.8,30.17,WNW,293,0.0,0.0,92,0.00,CLR,,0.00,WeatherDisplay:10.37,2013-02-02 10:32:00,
2013-02-02 02:47:00,39.8,37.7,30.17,WNW,293,0.0,0.0,92,0.00,CLR,,0.00,WeatherDisplay:10.37,2013-02-02 10:47:00,
2013-02-02 03:02:00,39.8,37.7,30.16,WNW,293,0.0,0.0,92,0.00,CLR,,0.00,WeatherDisplay:10.37,2013-02-02 11:02:00,
2013-02-02 03:17:00,39.8,37.7,30.16,WNW,293,0.0,0.0,92,0.00,CLR,,0.00,WeatherDisplay:10.37,2013-02-02 11:17:00,
2013-02-02 03:32:00,39.6,37.5,30.15,WNW,293,0.0,0.0,92,0.00,CLR,,0.00,WeatherDisplay:10.37,2013-02-02 11:32:00,
2013-02-02 03:47:00,39.6,37.5,30.15,WNW,293,0.0,0.0,92,0.00,CLR,,0.00,WeatherDisplay:10.37,2013-02-02 11:47:00,
2013-02-02 04:02:00,39.6,37.5,30.14,WNW,293,0.0,0.0,92,0.00,CLR,,0.00,WeatherDisplay:10.37,2013-02-02 12:02:00,
2013-02-02 04:17:00,39.5,37.6,30.14,WNW,293,0.0,0.0,93,0.00,CLR,,0.00,WeatherDisplay:10.37,2013-02-02 12:17:00,
2013-02-02 04:32:00,39.5,37.6,30.14,WNW,293,0.0,0.0,93,0.00,CLR,,0.00,WeatherDisplay:10.37,2013-02-02 12:32:00,
2013-02-02 04:47:00,39.5,37.6,30.15,WNW,293,0.0,0.0,93,0.00,CLR,,0.00,WeatherDisplay:10.37,2013-02-02 12:47:00,
2013-02-02 05:02:00,39.6,37.7,30.15,WNW,293,0.0,0.0,93,0.00,CLR,,0.00,WeatherDisplay:10.37,2013-02-02 13:02:00,
2013-02-02 05:17:00,39.6,37.7,30.15,WNW,293,0.0,0.0,93,0.00,CLR,,0.00,WeatherDisplay:10.37,2013-02-02 13:17:00,
2013-02-02 05:32:00,39.8,37.9,30.15,WNW,293,0.0,0.0,93,0.00,CLR,,0.00,WeatherDisplay:10.37,2013-02-02 13:32:00,
2013-02-02 05:47:00,39.8,37.9,30.15,WNW,293,0.0,0.0,93,0.00,CLR,,0.00,WeatherDisplay:10.37,2013-02-02 13:47:00,
2013-02-02 06:02:00,39.9,38.0,30.15,WNW,293,0.0,0.0,93,0.00,CLR,,0.00,WeatherDisplay:10.37,2013-02-02 14:02:00,
2013-02-02 06:17:00,40.1,38.2,30.16,WNW,293,0.0,0.0,93,0.00,CLR,,0.00,WeatherDisplay:10.37,2013-02-02 14:17:00,
2013-02-02 06:32:00,40.1,38.2,30.17,WNW,293,0.0,0.0,93,0.00,CLR,,0.00,WeatherDisplay:10.37,2013-02-02 14:32:00,
2013-02-02 06:47:00,40.2,38.3,30.17,WNW,293,0.0,0.0,93,0.00,CLR,,0.00,WeatherDisplay:10.37,2013-02-02 14:47:00,
2013-02-02 07:02:00,40.3,38.4,30.17,WNW,293,0.0,0.0,93,0.00,CLR,,0.00,WeatherDisplay:10.37,2013-02-02 15:02:00,
2013-02-02 07:17:00,40.3,38.4,30.18,WNW,293,0.0,0.0,93,0.00,CLR,,0.00,WeatherDisplay:10.37,2013-02-02 15:17:00,
2013-02-02 07:32:00,40.5,38.6,30.19,WNW,293,0.0,0.0,93,0.00,CLR,,0.00,WeatherDisplay:10.37,2013-02-02 15:32:00,
2013-02-02 07:47:00,40.6,38.7,30.19,WNW,293,0.0,0.0,93,0.00,CLR,,0.00,WeatherDisplay:10.37,2013-02-02 15:47:00,
2013-02-02 08:02:00,40.8,39.2,30.19,WNW,293,0.0,0.0,94,0.00,CLR,,0.00,WeatherDisplay:10.37,2013-02-02 16:02:00,
2013-02-02 08:17:00,40.9,39.3,30.20,WNW,293,0.0,0.0,94,0.00,CLR,,0.00,WeatherDisplay:10.37,2013-02-02 16:17:00,
2013-02-02 08:32:00,41.2,39.6,30.21,WNW,293,0.0,0.0,94,0.00,CLR,,0.00,WeatherDisplay:10.37,2013-02-02 16:32:00,
2013-02-02 08:47:00,41.8,40.2,30.21,WNW,293,0.0,0.0,94,0.00,CLR,,0.00,WeatherDisplay:10.37,2013-02-02 16:47:00,
2013-02-02 09:02:00,42.2,40.6,30.21,WNW,293,0.0,0.0,94,0.00,CLR,,0.00,WeatherDisplay:10.37,2013-02-02 17:02:00,
2013-02-02 09:17:00,42.8,41.2,30.21,WNW,293,0.0,0.0,94,0.00,CLR,,0.00,WeatherDisplay:10.37,2013-02-02 17:17:00,
2013-02-02 09:32:00,43.6,41.9,30.20,WNW,293,0.0,0.0,94,0.00,CLR,,0.00,WeatherDisplay:10.37,2013-02-02 17:32:00,
2013-02-02 09:47:00,44.3,42.7,30.20,WNW,293,0.0,0.0,94,0.00,CLR,,0.00,WeatherDisplay:10.37,2013-02-02 17:47:00,
2013-02-02 10:02:00,45.2,43.9,30.19,WNW,293,0.0,0.0,95,0.00,CLR,,0.00,WeatherDisplay:10.37,2013-02-02 18:02:00,
2013-02-02 10:17:00,45.8,44.2,30.20,WNW,293,0.0,0.0,94,0.00,CLR,,0.00,WeatherDisplay:10.37,2013-02-02 18:17:00,
2013-02-02 10:32:00,46.1,44.5,30.21,WNW,293,0.0,0.0,94,0.00,CLR,,0.00,WeatherDisplay:10.37,2013-02-02 18:32:00,
2013-02-02 10:47:00,46.7,45.1,30.21,WNW,293,0.0,0.0,94,0.00,CLR,,0.00,WeatherDisplay:10.37,2013-02-02 18:47:00,
2013-02-02 11:02:00,47.6,46.0,30.21,WNW,293,0.0,0.0,94,0.00,CLR,,0.00,WeatherDisplay:10.37,2013-02-02 19:02:00,
2013-02-02 11:17:00,48.8,47.1,30.21,WNW,293,0.0,0.0,94,0.00,CLR,,0.00,WeatherDisplay:10.37,2013-02-02 19:17:00,
2013-02-02 11:32:00,50.2,48.2,30.20,WNW,293,0.0,0.0,93,0.00,CLR,,0.00,WeatherDisplay:10.37,2013-02-02 19:32:00,
2013-02-02 11:47:00,51.8,48.9,30.19,WNW,293,0.0,0.0,90,0.00,CLR,,0.00,WeatherDisplay:10.37,2013-02-02 19:47:00,
2013-02-02 12:02:00,53.2,49.7,30.19,WNW,293,0.0,0.0,88,0.00,CLR,,0.00,WeatherDisplay:10.37,2013-02-02 20:02:00,
2013-02-02 12:17:00,53.9,49.5,30.17,WNW,293,0.0,0.0,85,0.00,CLR,,0.00,WeatherDisplay:10.37,2013-02-02 20:17:00,
2013-02-02 12:32:00,54.5,49.4,30.17,WNW,293,0.0,0.0,83,0.00,CLR,,0.00,WeatherDisplay:10.37,2013-02-02 20:32:00,
2013-02-02 12:47:00,55.1,50.0,30.16,WNW,293,0.0,0.0,83,0.00,CLR,,0.00,WeatherDisplay:10.37,2013-02-02 20:47:00,
2013-02-02 13:02:00,56.7,49.9,30.14,WNW,293,0.0,0.0,78,0.00,CLR,,0.00,WeatherDisplay:10.37,2013-02-02 21:02:00,
2013-02-02 13:17:00,61.0,51.1,30.14,WNW,293,0.0,0.0,70,0.00,CLR,,0.00,WeatherDisplay:10.37,2013-02-02 21:17:00,
2013-02-02 13:32:00,62.0,50.9,30.14,SSW,193,0.0,2.0,67,0.00,CLR,,0.00,WeatherDisplay:10.37,2013-02-02 21:32:00,
2013-02-02 13:47:00,64.3,50.1,30.14,West,281,0.0,2.0,60,0.00,CLR,,0.00,WeatherDisplay:10.37,2013-02-02 21:47:00,
2013-02-02 14:02:00,62.3,52.4,30.14,West,281,0.0,4.0,70,0.00,CLR,,0.00,WeatherDisplay:10.37,2013-02-02 22:02:00,
2013-02-02 14:17:00,62.0,51.3,30.14,WNW,295,0.0,3.0,68,0.00,CLR,,0.00,WeatherDisplay:10.37,2013-02-02 22:17:00,
2013-02-02 14:32:00,61.3,50.2,30.15,WNW,297,1.0,5.0,67,0.00,CLR,,0.00,WeatherDisplay:10.37,2013-02-02 22:32:00,
2013-02-02 14:47:00,60.9,50.7,30.15,NW,311,0.0,2.0,69,0.00,CLR,,0.00,WeatherDisplay:10.37,2013-02-02 22:47:00,
2013-02-02 15:02:00,60.9,50.7,30.15,NW,311,0.0,2.0,69,0.00,CLR,,0.00,WeatherDisplay:10.37,2013-02-02 23:02:00,
2013-02-02 15:17:00,60.5,51.0,30.15,SW,217,0.0,1.0,71,0.00,CLR,,0.00,WeatherDisplay:10.37,2013-02-02 23:17:00,
2013-02-02 15:32:00,60.1,51.4,30.14,SW,217,0.0,0.0,73,0.00,CLR,,0.00,WeatherDisplay:10.37,2013-02-02 23:32:00,
2013-02-02 15:47:00,59.5,50.8,30.14,SW,217,0.0,0.0,73,0.00,CLR,,0.00,WeatherDisplay:10.37,2013-02-02 23:47:00,
2013-02-02 16:02:00,59.3,51.4,30.14,SW,217,0.0,0.0,75,0.00,CLR,,0.00,WeatherDisplay:10.37,2013-02-03 00:02:00,
2013-02-02 16:17:00,59.3,51.7,30.14,SW,217,0.0,0.0,76,0.00,CLR,,0.00,WeatherDisplay:10.37,2013-02-03 00:17:00,
2013-02-02 16:32:00,59.0,51.8,30.14,SW,217,0.0,0.0,77,0.00,CLR,,0.00,WeatherDisplay:10.37,2013-02-03 00:32:00,
2013-02-02 16:47:00,58.4,51.6,30.14,SW,217,0.0,0.0,78,0.00,CLR,,0.00,WeatherDisplay:10.37,2013-02-03 00:47:00,
2013-02-02 17:02:00,57.6,50.8,30.15,SW,217,0.0,0.0,78,0.00,CLR,,0.00,WeatherDisplay:10.37,2013-02-03 01:02:00,
2013-02-02 17:17:00,56.7,50.6,30.15,SW,217,0.0,0.0,80,0.00,CLR,,0.00,WeatherDisplay:10.37,2013-02-03 01:17:00,
2013-02-02 17:32:00,55.6,50.2,30.16,SW,217,0.0,0.0,82,0.00,CLR,,0.00,WeatherDisplay:10.37,2013-02-03 01:32:00,
2013-02-02 17:47:00,54.7,49.6,30.16,SW,217,0.0,0.0,83,0.00,CLR,,0.00,WeatherDisplay:10.37,2013-02-03 01:47:00,
2013-02-02 18:02:00,53.8,48.8,30.16,SW,217,0.0,0.0,83,0.00,CLR,,0.00,WeatherDisplay:10.37,2013-02-03 02:02:00,
2013-02-02 18:17:00,53.1,48.4,30.16,SW,217,0.0,0.0,84,0.00,CLR,,0.00,WeatherDisplay:10.37,2013-02-03 02:17:00,
2013-02-02 18:32:00,52.2,47.8,30.16,SW,217,0.0,0.0,85,0.00,CLR,,0.00,WeatherDisplay:10.37,2013-02-03 02:32:00,
2013-02-02 18:47:00,51.3,47.3,30.16,SW,217,0.0,0.0,86,0.00,CLR,,0.00,WeatherDisplay:10.37,2013-02-03 02:47:00,
2013-02-02 19:02:00,50.4,46.7,30.16,SW,217,0.0,0.0,87,0.00,CLR,,0.00,WeatherDisplay:10.37,2013-02-03 03:02:00,
2013-02-02 19:17:00,49.8,46.4,30.16,SW,217,0.0,0.0,88,0.00,CLR,,0.00,WeatherDisplay:10.37,2013-02-03 03:17:00,
2013-02-02 19:32:00,49.1,46.0,30.16,SW,217,0.0,0.0,89,0.00,CLR,,0.00,WeatherDisplay:10.37,2013-02-03 03:32:00,
2013-02-02 19:47:00,48.6,45.5,30.16,SW,217,0.0,0.0,89,0.00,CLR,,0.00,WeatherDisplay:10.37,2013-02-03 03:47:00,
2013-02-02 20:02:00,48.2,45.4,30.16,SW,217,0.0,0.0,90,0.00,CLR,,0.00,WeatherDisplay:10.37,2013-02-03 04:02:00,
2013-02-02 20:17:00,47.7,44.9,30.16,SW,217,0.0,0.0,90,0.00,CLR,,0.00,WeatherDisplay:10.37,2013-02-03 04:17:00,
2013-02-02 20:32:00,47.4,44.6,30.16,SW,217,0.0,0.0,90,0.00,CLR,,0.00,WeatherDisplay:10.37,2013-02-03 04:32:00,
2013-02-02 20:47:00,47.1,44.6,30.16,SW,217,0.0,0.0,91,0.00,CLR,,0.00,WeatherDisplay:10.37,2013-02-03 04:47:00,
2013-02-02 21:17:00,46.4,43.9,30.16,SW,217,0.0,0.0,91,0.00,CLR,,0.00,WeatherDisplay:10.37,2013-02-03 05:17:00,
2013-02-02 21:32:00,46.0,43.5,30.17,SW,217,0.0,0.0,91,0.00,CLR,,0.00,WeatherDisplay:10.37,2013-02-03 05:32:00,
2013-02-02 21:47:00,45.5,43.1,30.17,SW,217,0.0,0.0,91,0.00,CLR,,0.00,WeatherDisplay:10.37,2013-02-03 05:47:00,
2013-02-02 22:02:00,45.2,42.7,30.17,SW,217,0.0,0.0,91,0.00,CLR,,0.00,WeatherDisplay:10.37,2013-02-03 06:02:00,
2013-02-02 22:17:00,44.8,42.3,30.17,SW,217,0.0,0.0,91,0.00,CLR,,0.00,WeatherDisplay:10.37,2013-02-03 06:17:00,
2013-02-02 22:32:00,44.6,42.4,30.17,SW,217,0.0,0.0,92,0.00,CLR,,0.00,WeatherDisplay:10.37,2013-02-03 06:32:00,
2013-02-02 22:47:00,44.5,42.3,30.17,SW,217,0.0,0.0,92,0.00,CLR,,0.00,WeatherDisplay:10.37,2013-02-03 06:47:00,
2013-02-02 23:02:00,44.3,42.1,30.17,SW,217,0.0,0.0,92,0.00,CLR,,0.00,WeatherDisplay:10.37,2013-02-03 07:02:00,
2013-02-02 23:17:00,44.1,41.9,30.17,SW,217,0.0,0.0,92,0.00,CLR,,0.00,WeatherDisplay:10.37,2013-02-03 07:17:00,
2013-02-02 23:32:00,43.8,41.6,30.17,SW,217,0.0,0.0,92,0.00,CLR,,0.00,WeatherDisplay:10.37,2013-02-03 07:32:00,
2013-02-02 23:47:00,43.6,41.4,30.17,SW,217,0.0,0.0,92,0.00,CLR,,0.00,WeatherDisplay:10.37,2013-02-03 07:47:00,